Terminal Aerodrome Forecast
Issued by NWS

Home | Current Version | Previous Version | Text Only | Print | Product List | Glossary On
Versions: 1 2 3 4 5 6 7 8 9 10 11 12 13 14 15 16 17
000
FTUS46 KSTO 221700 RRA
TAFMHR
TAF
KMHR 221744Z 2218/2318 32008KT 5SM BR BKN007
     FM222100 32010KT P6SM SCT010
     FM230600 36005KT 6SM BR SCT250
     FM230800 28006KT 3SM BR FEW250
     FM231000 VRB04KT 1SM BR SKC
      TEMPO 2312/2316 1/2SM FG BKN002=

USA.gov is the U.S. government's official web portal to all federal, state and local government web resources and services.